Terminal Aerodrome Forecast
Issued by NWS

Home | Current Version | Previous Version | Text Only | Print | Product List | Glossary On
Versions: 1 2 3 4 5 6 7 8 9 10 11 12 13 14 15 16
000
FTUS43 KDDC 162320
TAFHYS
TAF
KHYS 162320Z 1700/1724 18012KT P6SM SKC
     FM170900 19011KT P6SM FEW250 WS020/22035KT
     FM171400 28011G21KT P6SM SKC WS020/32040KT
     FM171700 31020G30KT P6SM SKC
     FM172300 02011KT P6SM SKC=

USA.gov is the U.S. government's official web portal to all federal, state and local government web resources and services.